Preview of NWS' New Version of Forecast
This preview is not operational and should not be used for support decisions.

Terminal Aerodrome Forecast (TAF)

Issued by National Weather Service (NWS)

                            
000
FTUS42 KMFL 220219 AAA
TAFMIA
TAF AMD
KMIA 220219Z 2202/2306 VRB06KT P6SM SCT040 SCT050
     FM220300 02010KT P6SM SCT050
     FM220600 06009KT P6SM SCT050
     FM221100 09011KT P6SM SCT040
     FM221700 11018G28KT P6SM SCT030 BKN050=